createdAt,value
2019-04-05T00:01:06.895Z,5.20
2019-04-05T00:03:40.123Z,4.72
2019-04-05T00:06:12.368Z,4.85
2019-04-05T00:08:43.080Z,5.20
2019-04-05T00:11:13.579Z,5.10
2019-04-05T00:13:44.736Z,5.05
2019-04-05T00:16:19.222Z,5.22
2019-04-05T00:18:50.374Z,5.40
2019-04-05T00:21:20.772Z,5.25
2019-04-05T00:23:51.152Z,4.83
2019-04-05T00:26:23.459Z,5.35
2019-04-05T00:28:53.859Z,4.95
2019-04-05T00:31:25.935Z,5.28
2019-04-05T00:33:56.624Z,5.83
2019-04-05T00:36:27.691Z,5.30
2019-04-05T00:38:58.091Z,5.12
2019-04-05T00:41:28.447Z,5.35
2019-04-05T00:43:59.707Z,5.67
2019-04-05T00:46:30.707Z,5.58
2019-04-05T00:49:01.099Z,5.70
2019-04-05T00:51:31.479Z,6.12
2019-04-05T00:54:08.232Z,5.55
2019-04-05T00:57:15.829Z,6.05
2019-04-05T00:59:46.691Z,5.70
2019-04-05T01:02:23.835Z,5.37
2019-04-05T01:05:12.403Z,5.90
2019-04-05T01:07:42.889Z,5.47
2019-04-05T01:10:33.468Z,5.53
2019-04-05T01:13:10.638Z,5.17
2019-04-05T01:15:44.419Z,5.37
2019-04-05T01:18:33.157Z,5.33
2019-04-05T01:21:05.556Z,5.45
2019-04-05T01:23:54.915Z,5.67
2019-04-05T01:26:26.243Z,5.65
2019-04-05T01:28:56.828Z,5.20
2019-04-05T01:31:29.330Z,6.15
2019-04-05T01:33:59.807Z,5.55
2019-04-05T01:36:30.281Z,6.05
2019-04-05T01:39:00.621Z,5.45
2019-04-05T01:41:31.835Z,5.92
2019-04-05T01:44:03.928Z,6.08
2019-04-05T01:46:35.062Z,5.28
2019-04-05T01:49:05.533Z,5.37
2019-04-05T01:51:36.275Z,5.58
2019-04-05T01:54:06.695Z,5.12
2019-04-05T01:56:37.110Z,5.20
2019-04-05T01:59:08.203Z,5.40
2019-04-05T02:01:38.959Z,5.62
2019-04-05T02:04:09.511Z,5.85
2019-04-05T02:06:41.815Z,5.72
2019-04-05T02:09:12.507Z,5.80
2019-04-05T02:11:44.671Z,5.85
2019-04-05T02:14:18.367Z,6.30
2019-04-05T02:16:48.928Z,5.80
2019-04-05T02:19:19.455Z,5.95
2019-04-05T02:21:55.992Z,6.12
2019-04-05T02:24:26.471Z,5.87
2019-04-05T02:26:57.667Z,5.72
2019-04-05T02:29:28.281Z,6.17
2019-04-05T02:32:00.570Z,6.33
2019-04-05T02:34:31.042Z,6.10
2019-04-05T02:37:14.579Z,6.40
2019-04-05T02:40:03.691Z,6.53
2019-04-05T02:42:34.707Z,6.10
2019-04-05T02:45:12.711Z,5.83
2019-04-05T02:47:46.588Z,6.03
2019-04-05T02:50:25.246Z,6.37
2019-04-05T02:52:59.305Z,7.03
2019-04-05T02:55:30.644Z,6.92
2019-04-05T02:58:03.366Z,7.20
2019-04-05T03:00:34.473Z,7.83
2019-04-05T03:03:10.774Z,7.03
2019-04-05T03:05:41.808Z,7.05
2019-04-05T03:08:12.393Z,6.85
2019-04-05T03:11:06.410Z,6.12
2019-04-05T03:13:46.893Z,6.62
2019-04-05T03:16:38.521Z,6.37
2019-04-05T03:19:06.394Z,6.70
2019-04-05T03:21:42.974Z,7.10
2019-04-05T03:24:18.279Z,6.60
2019-04-05T03:27:21.285Z,7.20
2019-04-05T03:29:53.911Z,7.42
2019-04-05T03:32:27.316Z,6.55
2019-04-05T03:34:59.425Z,7.35
2019-04-05T03:37:38.452Z,7.50
2019-04-05T03:40:09.013Z,6.95
2019-04-05T03:42:39.736Z,7.10
2019-04-05T03:45:19.346Z,6.87
2019-04-05T03:47:55.997Z,7.42
2019-04-05T03:50:32.692Z,7.17
2019-04-05T03:53:03.323Z,6.95
2019-04-05T03:55:33.976Z,7.15
2019-04-05T03:58:07.727Z,6.95
2019-04-05T04:00:38.454Z,8.38
2019-04-05T04:03:14.826Z,7.70
2019-04-05T04:05:45.302Z,7.62
2019-04-05T04:08:15.811Z,7.87
2019-04-05T04:10:49.923Z,7.22
2019-04-05T04:13:27.943Z,7.83
2019-04-05T04:15:59.292Z,7.87
2019-04-05T04:18:34.291Z,8.10
2019-04-05T04:21:13.537Z,8.38
2019-04-05T04:23:44.147Z,8.28
2019-04-05T04:26:15.256Z,8.18
2019-04-05T04:28:46.592Z,8.60
2019-04-05T04:31:17.345Z,9.50
2019-04-05T04:33:48.574Z,8.93
2019-04-05T04:36:22.679Z,8.63
2019-04-05T04:38:53.597Z,8.65
2019-04-05T04:41:24.158Z,10.23
2019-04-05T04:43:55.189Z,9.65
2019-04-05T04:46:26.223Z,9.53
2019-04-05T04:48:56.800Z,8.30
2019-04-05T04:51:27.852Z,9.33
2019-04-05T04:54:01.261Z,9.10
2019-04-05T04:56:32.127Z,8.85
2019-04-05T04:59:02.766Z,9.00
2019-04-05T05:01:33.471Z,9.53
2019-04-05T05:04:04.488Z,8.70
2019-04-05T05:06:35.170Z,8.30
2019-04-05T05:09:07.582Z,8.18
2019-04-05T05:11:38.070Z,8.25
2019-04-05T05:14:09.476Z,8.25
2019-04-05T05:16:40.015Z,8.28
2019-04-05T05:19:10.887Z,9.23
2019-04-05T05:21:41.336Z,7.67
2019-04-05T05:24:11.778Z,8.65
2019-04-05T05:26:42.523Z,7.08
2019-04-05T05:29:13.316Z,7.17
2019-04-05T05:31:45.675Z,7.78
2019-04-05T05:34:17.072Z,6.92
2019-04-05T05:36:48.802Z,7.40
2019-04-05T05:39:19.866Z,7.45
2019-04-05T05:41:50.772Z,7.22
2019-04-05T05:44:21.982Z,7.65
2019-04-05T05:46:53.086Z,6.97
2019-04-05T05:49:24.011Z,7.45
2019-04-05T05:51:55.948Z,7.00
2019-04-05T05:54:26.343Z,7.45
2019-04-05T05:57:09.131Z,7.78
2019-04-05T05:59:39.504Z,7.53
2019-04-05T06:02:10.132Z,7.78
2019-04-05T06:04:40.596Z,7.85
2019-04-05T06:07:10.985Z,7.50
2019-04-05T06:09:41.396Z,6.75
2019-04-05T06:12:15.150Z,7.37
2019-04-05T06:14:45.630Z,7.08
2019-04-05T06:17:16.035Z,7.25
2019-04-05T06:19:46.404Z,6.42
2019-04-05T06:22:16.914Z,6.00
2019-04-05T06:24:48.384Z,5.00
2019-04-05T06:27:22.231Z,5.28
2019-04-05T06:29:53.048Z,5.05
2019-04-05T06:32:23.548Z,4.35
2019-04-05T06:34:53.947Z,4.15
2019-04-05T06:37:32.487Z,3.77
2019-04-05T06:40:03.435Z,3.85
2019-04-05T06:42:33.923Z,3.80
2019-04-05T06:45:04.606Z,3.83
2019-04-05T06:47:41.859Z,3.08
2019-04-05T06:50:12.307Z,3.33
2019-04-05T06:52:42.792Z,3.58
2019-04-05T06:55:13.308Z,4.08
2019-04-05T06:57:43.794Z,3.47
2019-04-05T07:00:14.622Z,3.60
2019-04-05T07:02:45.031Z,3.98
2019-04-05T07:05:16.246Z,3.90
2019-04-05T07:07:46.820Z,4.03
2019-04-05T07:10:17.457Z,3.50
2019-04-05T07:12:48.041Z,3.67
2019-04-05T07:15:18.742Z,3.95
2019-04-05T07:17:49.156Z,3.62
2019-04-05T07:20:19.659Z,4.10
2019-04-05T07:22:50.152Z,4.03
2019-04-05T07:25:20.642Z,4.10
2019-04-05T07:28:03.315Z,3.83
2019-04-05T07:30:33.885Z,3.95
2019-04-05T07:33:04.355Z,4.35
2019-04-05T07:35:34.849Z,4.00
2019-04-05T07:38:05.442Z,4.80
2019-04-05T07:40:37.147Z,5.15
2019-04-05T07:43:10.970Z,4.08
2019-04-05T07:45:42.090Z,4.35
2019-04-05T07:48:12.468Z,4.45
2019-04-05T07:50:42.991Z,4.30
2019-04-05T07:53:16.039Z,4.45
2019-04-05T07:55:46.560Z,4.17
2019-04-05T07:58:18.649Z,4.58
2019-04-05T08:00:54.557Z,4.00
2019-04-05T08:03:27.768Z,4.20
2019-04-05T08:05:58.300Z,4.80
2019-04-05T08:08:46.932Z,5.10
2019-04-05T08:11:17.486Z,4.75
2019-04-05T08:13:49.779Z,5.10
2019-04-05T08:16:26.421Z,5.28
2019-04-05T08:18:58.271Z,4.85
2019-04-05T08:21:28.776Z,4.95
2019-04-05T08:23:59.213Z,5.12
2019-04-05T08:26:29.700Z,5.50
2019-04-05T08:29:00.100Z,5.53
2019-04-05T08:31:30.535Z,5.42
2019-04-05T08:34:01.904Z,5.97
2019-04-05T08:36:32.796Z,6.85
2019-04-05T08:39:06.313Z,6.25
2019-04-05T08:41:38.388Z,6.58
2019-04-05T08:44:09.746Z,6.28
2019-04-05T08:46:40.175Z,6.33
2019-04-05T08:49:11.731Z,7.40
2019-04-05T08:51:42.602Z,8.20
2019-04-05T08:54:13.060Z,7.00
2019-04-05T08:56:43.575Z,8.35
2019-04-05T08:59:14.579Z,6.15
2019-04-05T09:01:47.964Z,6.47
2019-04-05T09:04:27.371Z,5.92
2019-04-05T09:07:00.553Z,6.55
2019-04-05T09:09:31.547Z,6.08
2019-04-05T09:12:09.458Z,6.45
2019-04-05T09:14:40.315Z,6.25
2019-04-05T09:17:10.913Z,6.47
2019-04-05T09:19:42.575Z,7.20
2019-04-05T09:22:12.881Z,6.10
2019-04-05T09:24:43.232Z,7.10
2019-04-05T09:27:13.697Z,7.40
2019-04-05T09:29:44.255Z,6.20
2019-04-05T09:32:14.699Z,6.50
2019-04-05T09:34:45.260Z,6.20
2019-04-05T09:37:15.845Z,7.12
2019-04-05T09:39:46.378Z,6.70
2019-04-05T09:42:19.923Z,6.95
2019-04-05T09:44:50.412Z,6.55
2019-04-05T09:47:23.414Z,6.62
2019-04-05T09:49:53.776Z,7.33
2019-04-05T09:52:24.188Z,8.40
2019-04-05T09:54:54.727Z,7.58
2019-04-05T09:57:25.278Z,7.12
2019-04-05T09:59:55.802Z,8.23
2019-04-05T10:02:26.301Z,7.87
2019-04-05T10:04:57.431Z,7.37
2019-04-05T10:07:27.891Z,6.85
2019-04-05T10:09:58.383Z,7.58
2019-04-05T10:12:28.845Z,7.40
2019-04-05T10:14:59.459Z,7.33
2019-04-05T10:17:30.837Z,7.37
2019-04-05T10:20:01.292Z,7.65
2019-04-05T10:22:31.706Z,8.63
2019-04-05T10:25:02.172Z,7.85
2019-04-05T10:27:32.933Z,8.15
2019-04-05T10:30:03.811Z,9.25
2019-04-05T10:32:34.915Z,9.45
2019-04-05T10:35:07.174Z,8.90
2019-04-05T10:37:38.584Z,9.48
2019-04-05T10:40:09.510Z,9.93
2019-04-05T10:42:40.560Z,10.08
2019-04-05T10:45:13.211Z,10.80
2019-04-05T10:47:43.983Z,11.35
2019-04-05T10:50:14.897Z,10.55
2019-04-05T10:52:45.597Z,11.65
2019-04-05T10:55:17.177Z,12.25
2019-04-05T10:57:47.766Z,11.95
2019-04-05T11:00:19.135Z,11.55
2019-04-05T11:02:52.544Z,11.28
2019-04-05T11:05:23.016Z,9.40
2019-04-05T11:07:53.562Z,8.98
2019-04-05T11:10:24.274Z,10.43
2019-04-05T11:12:56.583Z,9.33
2019-04-05T11:15:28.768Z,9.78
2019-04-05T11:18:08.023Z,9.58
2019-04-05T11:20:38.527Z,8.65
2019-04-05T11:23:09.083Z,9.63
2019-04-05T11:25:39.586Z,8.80
2019-04-05T11:28:09.992Z,8.28
2019-04-05T11:30:45.045Z,9.58
2019-04-05T11:33:15.592Z,10.43
2019-04-05T11:35:46.187Z,10.88
2019-04-05T11:38:17.704Z,13.40
2019-04-05T11:40:58.869Z,12.78
2019-04-05T11:43:35.786Z,14.18
2019-04-05T11:46:06.483Z,13.95
2019-04-05T11:48:41.145Z,14.83
2019-04-05T11:51:11.427Z,13.83
2019-04-05T11:53:41.835Z,14.18
2019-04-05T11:56:14.859Z,15.80
2019-04-05T11:58:48.612Z,15.03
2019-04-05T12:01:24.827Z,13.58
2019-04-05T12:04:01.037Z,12.50
2019-04-05T12:06:31.515Z,11.90
2019-04-05T12:09:02.110Z,11.28
2019-04-05T12:11:33.883Z,12.60
2019-04-05T12:14:04.487Z,10.82
2019-04-05T12:16:36.227Z,9.75
2019-04-05T12:19:10.217Z,12.13
2019-04-05T12:21:42.214Z,9.20
2019-04-05T12:24:14.488Z,9.28
2019-04-05T12:26:44.938Z,8.63
2019-04-05T12:29:18.055Z,6.72
2019-04-05T12:31:50.020Z,8.80
2019-04-05T12:34:24.114Z,9.15
2019-04-05T13:03:05.598Z,6.67
2019-04-05T13:05:51.242Z,6.40
2019-04-05T13:08:36.036Z,6.75
2019-04-05T13:11:06.616Z,7.22
2019-04-05T13:13:44.989Z,6.75
2019-04-05T13:16:15.407Z,6.28
2019-04-05T13:18:45.736Z,6.75
2019-04-05T13:21:20.450Z,6.67
2019-04-05T13:23:52.470Z,6.58
2019-04-05T13:26:22.874Z,6.37
2019-04-05T13:28:54.875Z,7.45
2019-04-05T13:31:28.839Z,6.72
2019-04-05T13:33:59.856Z,6.08
2019-04-05T13:36:31.827Z,5.40
2019-04-05T13:39:05.493Z,5.83
2019-04-05T13:41:36.800Z,5.20
2019-04-05T13:44:12.406Z,5.72
2019-04-05T13:46:43.089Z,5.20
2019-04-05T13:49:13.454Z,5.95
2019-04-05T13:51:43.759Z,5.15
2019-04-05T13:54:14.094Z,5.62
2019-04-05T13:56:44.467Z,5.58
2019-04-05T13:59:15.944Z,5.72
2019-04-05T14:01:46.235Z,5.60
2019-04-05T14:04:20.679Z,5.40
2019-04-05T14:06:53.212Z,4.90
2019-04-05T14:09:22.595Z,8.08
2019-04-05T14:11:52.931Z,6.15
2019-04-05T14:14:23.271Z,5.25
2019-04-05T14:16:54.103Z,5.20
2019-04-05T14:19:24.613Z,4.97
2019-04-05T14:22:07.497Z,4.72
2019-04-05T14:24:27.009Z,5.35
2019-04-05T14:26:57.303Z,7.00
2019-04-05T14:29:27.663Z,5.83
2019-04-05T14:32:00.982Z,5.03
2019-04-05T14:34:29.922Z,4.62
2019-04-05T14:37:00.647Z,4.83
2019-04-05T14:39:31.010Z,4.37
2019-04-05T14:42:09.531Z,4.60
2019-04-05T14:44:33.461Z,3.80
2019-04-05T14:47:03.959Z,4.10
2019-04-05T14:49:35.361Z,4.30
2019-04-05T14:52:06.591Z,3.80
2019-04-05T14:54:43.172Z,4.03
2019-04-05T14:57:13.010Z,4.53
2019-04-05T14:59:45.032Z,4.40
2019-04-05T15:02:15.431Z,4.28
2019-04-05T15:04:46.052Z,4.70
2019-04-05T15:07:20.494Z,4.40
2019-04-05T15:09:49.651Z,4.10
2019-04-05T15:12:23.480Z,3.98
2019-04-05T15:14:53.951Z,3.90
2019-04-05T15:17:24.657Z,4.22
2019-04-05T15:20:04.560Z,3.62
2019-04-05T15:22:34.859Z,3.83
2019-04-05T15:25:06.105Z,3.87
2019-04-05T15:27:36.678Z,4.15
2019-04-05T15:30:08.079Z,3.50
2019-04-05T15:32:43.613Z,4.05
2019-04-05T15:35:14.509Z,3.60
2019-04-05T15:37:45.209Z,3.35
2019-04-05T15:40:15.717Z,2.75
2019-04-05T15:42:46.944Z,2.92
2019-04-05T15:45:17.488Z,2.80
2019-04-05T15:47:48.010Z,2.80
2019-04-05T15:50:19.701Z,2.60
2019-04-05T15:52:50.634Z,2.70
2019-04-05T15:55:21.567Z,2.83
2019-04-05T15:57:52.006Z,2.80
2019-04-05T16:00:40.958Z,2.30
2019-04-05T16:03:11.885Z,2.58
2019-04-05T16:05:43.223Z,2.67
2019-04-05T16:08:17.481Z,2.30
2019-04-05T16:10:48.039Z,2.42
2019-04-05T16:13:18.409Z,2.42
2019-04-05T16:15:53.200Z,2.80
2019-04-05T16:18:23.504Z,2.20
2019-04-05T16:20:54.007Z,2.30
2019-04-05T16:23:24.516Z,2.60
2019-04-05T16:25:56.829Z,2.17
2019-04-05T16:28:27.221Z,2.70
2019-04-05T16:30:57.588Z,2.33
2019-04-05T16:33:28.012Z,2.05
2019-04-05T16:35:58.351Z,2.10
2019-04-05T16:38:28.812Z,1.70
2019-04-05T16:40:59.276Z,2.00
2019-04-05T16:43:29.921Z,2.10
2019-04-05T16:46:00.527Z,1.65
2019-04-05T16:48:32.318Z,1.87
2019-04-05T16:51:03.308Z,1.60
2019-04-05T16:53:34.787Z,1.90
2019-04-05T16:56:07.184Z,2.00
2019-04-05T16:58:38.735Z,1.70
2019-04-05T17:01:09.162Z,1.65
2019-04-05T17:03:39.764Z,1.27
2019-04-05T17:06:10.165Z,1.40
2019-04-05T17:08:40.592Z,1.60
2019-04-05T17:11:10.948Z,1.40
2019-04-05T17:13:41.275Z,1.45
2019-04-05T17:16:11.641Z,1.20
2019-04-05T17:18:42.380Z,1.42
2019-04-05T17:21:12.872Z,1.25
2019-04-05T17:23:43.175Z,1.17
2019-04-05T17:26:13.506Z,1.10
2019-04-05T17:28:44.182Z,1.30
2019-04-05T17:31:14.624Z,1.20
2019-04-05T17:33:45.068Z,1.35
2019-04-05T17:36:16.647Z,1.65
2019-04-05T17:38:47.683Z,1.47
2019-04-05T17:41:18.819Z,1.47
2019-04-05T17:43:51.757Z,1.30
2019-04-05T17:46:22.196Z,1.50
2019-04-05T17:48:52.670Z,1.50
2019-04-05T17:51:23.111Z,1.17
2019-04-05T17:53:53.434Z,3.22
2019-04-05T17:56:23.868Z,1.30
2019-04-05T17:58:56.015Z,1.07
2019-04-05T18:01:26.454Z,1.30
2019-04-05T18:03:57.894Z,1.07
2019-04-05T18:06:28.346Z,1.10
2019-04-05T18:08:58.688Z,1.37
2019-04-05T18:11:29.187Z,1.10
2019-04-05T18:14:00.722Z,1.37
2019-04-05T18:16:32.066Z,1.40
2019-04-05T18:19:03.589Z,1.30
2019-04-05T18:21:34.043Z,1.30
2019-04-05T18:24:04.753Z,1.20
2019-04-05T18:26:35.224Z,2.05
2019-04-05T18:29:05.742Z,1.37
2019-04-05T18:31:36.251Z,1.45
2019-04-05T18:34:06.667Z,2.05
2019-04-05T18:36:37.085Z,2.65
2019-04-05T18:39:07.882Z,2.95
2019-04-05T18:41:38.875Z,2.92
2019-04-05T18:44:10.523Z,3.60
2019-04-05T18:46:41.047Z,3.98
2019-04-05T18:49:12.159Z,4.03
2019-04-05T18:51:42.599Z,4.12
2019-04-05T18:54:13.043Z,4.50
2019-04-05T18:56:43.815Z,3.98
2019-04-05T18:59:15.204Z,4.03
2019-04-05T19:01:46.636Z,3.85
2019-04-05T19:04:16.978Z,3.95
2019-04-05T19:06:47.420Z,3.90
2019-04-05T19:09:17.911Z,4.28
2019-04-05T19:11:48.212Z,4.50
2019-04-05T19:14:18.587Z,4.47
2019-04-05T19:16:49.035Z,4.92
2019-04-05T19:19:19.364Z,4.40
2019-04-05T19:21:49.719Z,4.33
2019-04-05T19:24:20.032Z,4.60
2019-04-05T19:26:50.394Z,4.55
2019-04-05T19:29:21.024Z,4.28
2019-04-05T19:49:36.888Z,5.28
2019-04-05T19:52:07.512Z,4.55
2019-04-05T19:54:37.856Z,4.55
2019-04-05T19:57:08.186Z,4.83
2019-04-05T19:59:39.338Z,5.47
2019-04-05T20:02:09.716Z,4.87
2019-04-05T20:04:40.331Z,4.80
2019-04-05T20:07:10.690Z,4.58
2019-04-05T20:09:41.003Z,4.58
2019-04-05T20:12:11.380Z,4.60
2019-04-05T20:14:41.650Z,4.92
2019-04-05T20:17:11.997Z,4.87
2019-04-05T20:19:42.327Z,4.40
2019-04-05T20:22:12.683Z,4.35
2019-04-05T20:24:43.061Z,4.80
2019-04-05T20:27:13.407Z,4.90
2019-04-05T20:29:43.999Z,5.00
2019-04-05T20:32:14.357Z,5.25
2019-04-05T20:34:44.677Z,4.97
2019-04-05T20:37:15.023Z,5.67
2019-04-05T20:39:45.695Z,4.97
2019-04-05T20:42:16.046Z,5.22
2019-04-05T20:44:46.366Z,5.30
2019-04-05T20:47:16.705Z,5.17
2019-04-05T20:49:47.757Z,5.53
2019-04-05T20:52:18.102Z,6.45
2019-04-05T20:54:48.446Z,5.15
2019-04-05T20:57:18.823Z,5.12
2019-04-05T20:59:50.174Z,5.17
2019-04-05T21:02:20.528Z,5.58
2019-04-05T21:04:51.150Z,6.10
2019-04-05T21:07:21.524Z,5.72
2019-04-05T21:09:51.949Z,5.50
2019-04-05T21:12:22.303Z,5.80
2019-04-05T21:14:52.595Z,5.70
2019-04-05T21:17:22.940Z,5.72
2019-04-05T21:19:53.287Z,5.97
2019-04-05T21:22:23.691Z,5.87
2019-04-05T21:24:54.020Z,5.95
2019-04-05T21:27:24.656Z,6.28
2019-04-05T21:29:55.035Z,6.10
2019-04-05T21:32:25.421Z,6.65
2019-04-05T21:34:56.312Z,9.20
2019-04-05T21:37:27.693Z,13.45
2019-04-05T21:39:59.297Z,10.63
2019-04-05T21:42:29.900Z,9.03
2019-04-05T21:45:00.350Z,7.58
2019-04-05T21:47:30.694Z,7.58
2019-04-05T21:50:01.142Z,7.30
2019-04-05T21:52:31.552Z,7.30
2019-04-05T21:55:01.972Z,7.50
2019-04-05T21:57:33.467Z,7.03
2019-04-05T22:00:09.099Z,7.08
2019-04-05T22:02:41.313Z,6.50
2019-04-05T22:05:11.867Z,6.70
2019-04-05T22:07:42.853Z,6.85
2019-04-05T22:10:13.426Z,6.37
2019-04-05T22:12:44.760Z,7.15
2019-04-05T22:15:15.529Z,7.28
2019-04-05T22:17:46.096Z,6.58
2019-04-05T22:20:16.838Z,6.90
2019-04-05T22:22:47.413Z,7.22
2019-04-05T22:25:17.974Z,7.12
2019-04-05T22:27:48.418Z,7.08
2019-04-05T22:30:18.967Z,6.72
2019-04-05T22:32:49.567Z,6.67
2019-04-05T22:35:20.065Z,6.87
2019-04-05T22:37:50.687Z,6.00
2019-04-05T22:40:21.166Z,6.25
2019-04-05T22:42:51.738Z,6.78
2019-04-05T22:45:22.373Z,6.50
2019-04-05T22:47:52.920Z,6.90
2019-04-05T22:50:23.471Z,7.10
2019-04-05T22:52:54.022Z,7.05
2019-04-05T22:55:24.614Z,7.47
2019-04-05T22:57:55.123Z,7.42
2019-04-05T23:00:26.486Z,6.28
2019-04-05T23:02:57.030Z,7.03
2019-04-05T23:05:27.608Z,7.33
2019-04-05T23:07:58.103Z,6.85
2019-04-05T23:10:28.654Z,6.58
2019-04-05T23:12:59.115Z,7.03
2019-04-05T23:15:29.649Z,6.97
2019-04-05T23:18:00.541Z,7.65
2019-04-05T23:20:31.051Z,7.35
2019-04-05T23:23:02.762Z,8.15
2019-04-05T23:25:34.401Z,7.00
2019-04-05T23:28:05.036Z,7.78
2019-04-05T23:30:37.149Z,7.58
2019-04-05T23:33:07.695Z,7.62
2019-04-05T23:35:38.208Z,8.65
2019-04-05T23:38:08.681Z,8.28
2019-04-05T23:40:39.122Z,8.85
2019-04-05T23:43:09.757Z,8.50
2019-04-05T23:45:41.570Z,8.25
2019-04-05T23:48:12.125Z,8.40
2019-04-05T23:50:42.638Z,9.18
2019-04-05T23:53:13.678Z,8.53
2019-04-05T23:55:44.254Z,9.13
2019-04-05T23:58:14.851Z,9.40
